Time;durP1;ratioP1;P1;durP2;ratioP2;P2;SDS_P1;SDS_P2;PMS_P1;PMS_P2;Temp;Humidity;BMP_temperature;BMP_pressure;BME280_temperature;BME280_humidity;BME280_pressure;Samples;Min_cycle;Max_cycle;Signal;HPM_P1;HPM_P2
2023/04/27 00:01:43;;;;;;;3.20;2.90;;;27.10;99.90;;;;;;5012248;28;20057;-57
2023/04/27 00:04:09;;;;;;;6.25;3.25;;;27.00;99.90;;;;;;5015353;28;20025;-58
2023/04/27 00:06:35;;;;;;;5.50;2.90;;;27.00;99.90;;;;;;4999572;28;20061;-58
2023/04/27 00:09:01;;;;;;;4.03;2.80;;;27.00;99.90;;;;;;4996098;28;20026;-57
2023/04/27 00:11:27;;;;;;;3.95;2.58;;;27.00;99.90;;;;;;4997052;28;20022;-58
2023/04/27 00:13:52;;;;;;;6.05;3.40;;;27.00;99.90;;;;;;5015452;28;20022;-57
2023/04/27 00:16:18;;;;;;;6.55;2.80;;;27.00;99.90;;;;;;5014739;28;20108;-57
2023/04/27 00:18:44;;;;;;;4.22;2.75;;;27.00;99.90;;;;;;5015612;28;20033;-57
2023/04/27 00:21:10;;;;;;;3.58;2.53;;;27.00;99.90;;;;;;5015067;28;20083;-58
2023/04/27 00:23:36;;;;;;;3.75;2.85;;;27.00;99.90;;;;;;5015255;28;20029;-57
2023/04/27 00:26:02;;;;;;;4.47;3.10;;;27.00;99.90;;;;;;5004043;28;20121;-57
2023/04/27 00:28:27;;;;;;;5.03;2.97;;;26.90;99.90;;;;;;4995389;28;20061;-57
2023/04/27 00:30:53;;;;;;;5.50;2.88;;;26.90;99.90;;;;;;4995776;28;20099;-57
2023/04/27 00:33:20;;;;;;;3.95;3.08;;;26.90;99.90;;;;;;4995671;28;20022;-57
2023/04/27 00:35:49;;;;;;;4.93;3.22;;;26.90;99.90;;;;;;4996259;28;20106;-57
2023/04/27 00:38:14;;;;;;;5.50;2.97;;;26.90;99.90;;;;;;4995997;28;20495;-57
2023/04/27 00:40:40;;;;;;;4.95;3.13;;;26.90;99.90;;;;;;4995545;28;20023;-57
2023/04/27 00:43:06;;;;;;;5.47;3.20;;;26.90;99.90;;;;;;4995814;28;20479;-57
2023/04/27 00:45:40;;;;;;;5.70;3.78;;;26.90;99.90;;;;;;5010646;28;20172;-57
2023/04/27 00:48:05;;;;;;;5.38;3.30;;;26.90;99.90;;;;;;4988569;28;20026;-57
2023/04/27 00:50:31;;;;;;;4.47;2.88;;;26.90;99.90;;;;;;4995242;28;20032;-57
2023/04/27 00:52:57;;;;;;;4.32;2.92;;;26.90;99.90;;;;;;5004074;28;20034;-58
2023/04/27 00:55:23;;;;;;;4.80;3.03;;;26.90;99.90;;;;;;5014207;28;20026;-57
2023/04/27 00:57:49;;;;;;;4.75;3.30;;;26.90;99.90;;;;;;5002348;28;20025;-57
2023/04/27 01:00:15;;;;;;;3.88;3.05;;;26.80;99.90;;;;;;5015288;28;20037;-57
2023/04/27 01:02:41;;;;;;;4.07;2.92;;;26.80;99.90;;;;;;5014909;28;20033;-57
2023/04/27 01:05:08;;;;;;;4.65;3.20;;;26.90;99.90;;;;;;5014702;28;20030;-57
2023/04/27 01:07:40;;;;;;;4.25;2.83;;;26.90;99.90;;;;;;5014338;28;20018;-57
2023/04/27 01:10:07;;;;;;;4.10;2.97;;;26.80;99.90;;;;;;5014125;28;20040;-57
2023/04/27 01:12:32;;;;;;;6.28;2.92;;;26.80;99.90;;;;;;5014249;28;20021;-57
2023/04/27 01:14:58;;;;;;;5.78;3.22;;;26.80;99.90;;;;;;5014588;28;20140;-57
2023/04/27 01:17:25;;;;;;;4.35;3.17;;;26.80;99.90;;;;;;4997513;28;20076;-57
2023/04/27 01:19:54;;;;;;;3.58;2.92;;;26.80;99.90;;;;;;4994735;28;20097;-57
2023/04/27 01:22:20;;;;;;;5.53;3.13;;;26.80;99.90;;;;;;4998160;28;20017;-57
2023/04/27 01:24:46;;;;;;;5.95;2.92;;;26.80;99.90;;;;;;5013303;28;20041;-57
2023/04/27 01:27:12;;;;;;;4.25;2.85;;;26.80;99.90;;;;;;5014341;28;20018;-57
2023/04/27 01:29:39;;;;;;;4.80;3.03;;;26.80;99.90;;;;;;5006267;28;20018;-56
2023/04/27 01:32:05;;;;;;;5.15;3.00;;;26.80;99.90;;;;;;4994686;28;20033;-56
2023/04/27 01:34:31;;;;;;;4.47;3.10;;;26.80;99.90;;;;;;4994544;28;20028;-57
2023/04/27 01:36:57;;;;;;;3.60;2.65;;;26.80;99.90;;;;;;5007427;28;20030;-57
2023/04/27 01:39:22;;;;;;;4.80;3.42;;;26.80;99.90;;;;;;5014018;28;20026;-57
2023/04/27 01:41:48;;;;;;;6.97;2.88;;;26.80;99.90;;;;;;5012610;28;20318;-57
2023/04/27 01:44:14;;;;;;;5.22;3.65;;;26.70;99.90;;;;;;5013393;28;20045;-57
2023/04/27 01:46:40;;;;;;;5.13;3.22;;;26.70;99.90;;;;;;5013699;28;20447;-57
2023/04/27 01:49:06;;;;;;;4.07;2.78;;;26.70;99.90;;;;;;5013719;28;20089;-57
2023/04/27 01:51:32;;;;;;;4.45;2.97;;;26.70;99.90;;;;;;5013488;28;20036;-57
2023/04/27 01:53:58;;;;;;;4.47;3.28;;;26.70;99.90;;;;;;5013675;28;20061;-57
2023/04/27 01:56:23;;;;;;;4.53;3.00;;;26.70;99.90;;;;;;5013919;28;20052;-57
2023/04/27 01:58:51;;;;;;;4.47;2.90;;;26.70;99.90;;;;;;5013659;28;20113;-57
2023/04/27 02:01:17;;;;;;;;;;;26.70;99.90;;;;;;5014742;28;20049;-57
2023/04/27 02:03:42;;;;;;;5.88;3.35;;;26.70;99.90;;;;;;5013506;28;19910;-57
2023/04/27 02:06:08;;;;;;;5.00;3.08;;;26.70;99.90;;;;;;5013204;28;20044;-57
2023/04/27 02:08:34;;;;;;;3.92;2.80;;;26.70;99.90;;;;;;5013318;28;20467;-57
2023/04/27 02:11:00;;;;;;;3.80;2.88;;;26.70;99.90;;;;;;5012982;28;20022;-56
2023/04/27 02:13:26;;;;;;;4.63;3.30;;;26.70;99.90;;;;;;5013086;28;20448;-56
2023/04/27 02:15:52;;;;;;;4.20;2.63;;;26.60;99.90;;;;;;5008581;28;20022;-57
2023/04/27 02:18:19;;;;;;;5.00;3.10;;;26.60;99.90;;;;;;4994102;28;20022;-57
2023/04/27 02:20:44;;;;;;;3.67;2.90;;;26.60;99.90;;;;;;4997459;28;20025;-57
2023/04/27 02:23:10;;;;;;;4.07;2.95;;;26.60;99.90;;;;;;5012864;28;20114;-57
2023/04/27 02:25:43;;;;;;;4.38;2.90;;;26.60;99.90;;;;;;4999803;28;20026;-57
2023/04/27 02:28:09;;;;;;;5.10;3.00;;;26.60;99.90;;;;;;5011555;28;20049;-56
2023/04/27 02:30:36;;;;;;;3.70;2.90;;;26.60;99.90;;;;;;4998452;28;20471;-57
2023/04/27 02:33:02;;;;;;;4.70;2.65;;;26.60;99.90;;;;;;5010108;28;20029;-57
2023/04/27 02:35:27;;;;;;;4.32;3.20;;;26.60;99.90;;;;;;5013096;28;20332;-57
2023/04/27 02:37:53;;;;;;;6.15;2.95;;;26.60;99.90;;;;;;5013205;28;20534;-58
2023/04/27 02:40:19;;;;;;;3.80;2.38;;;26.50;99.90;;;;;;5012824;28;20030;-57
2023/04/27 02:42:44;;;;;;;4.82;2.67;;;26.60;99.90;;;;;;5005656;28;20026;-57
2023/04/27 02:45:11;;;;;;;4.00;2.45;;;26.60;99.90;;;;;;4993364;28;20034;-57
2023/04/27 02:47:36;;;;;;;3.75;2.50;;;26.60;99.90;;;;;;4992180;28;20026;-57
2023/04/27 02:50:03;;;;;;;4.22;2.55;;;26.60;99.90;;;;;;4992177;28;20100;-56
2023/04/27 02:52:28;;;;;;;5.70;2.72;;;26.50;99.90;;;;;;4999418;28;20022;-57
2023/04/27 02:54:55;;;;;;;4.30;2.92;;;26.50;99.90;;;;;;4982598;28;20076;-57
2023/04/27 02:57:21;;;;;;;3.95;3.53;;;26.50;99.90;;;;;;4993046;28;20022;-56
2023/04/27 02:59:47;;;;;;;4.32;2.58;;;26.50;99.90;;;;;;4975908;28;20045;-57
2023/04/27 03:02:15;;;;;;;3.88;2.78;;;26.50;99.90;;;;;;4980787;28;20033;-56
2023/04/27 03:04:42;;;;;;;3.53;2.58;;;26.50;99.90;;;;;;5011365;28;20030;-57
2023/04/27 03:07:08;;;;;;;3.63;2.73;;;26.50;99.90;;;;;;5007914;28;20027;-57
2023/04/27 03:09:33;;;;;;;3.22;2.60;;;26.50;99.90;;;;;;4991777;28;20073;-57
2023/04/27 03:11:59;;;;;;;4.25;2.78;;;26.50;99.90;;;;;;4992707;28;20026;-57
2023/04/27 03:14:25;;;;;;;5.00;3.10;;;26.50;99.90;;;;;;5002508;28;20097;-57
2023/04/27 03:16:51;;;;;;;4.47;3.17;;;26.50;99.90;;;;;;5011927;28;20049;-57
2023/04/27 03:19:17;;;;;;;4.13;3.05;;;26.50;99.90;;;;;;5011993;28;20018;-57
2023/04/27 03:21:43;;;;;;;5.18;2.83;;;26.50;99.90;;;;;;4997656;28;20045;-57
2023/04/27 03:24:09;;;;;;;3.42;2.92;;;26.50;99.90;;;;;;4992688;28;20030;-57
2023/04/27 03:26:35;;;;;;;7.00;3.10;;;26.40;99.90;;;;;;5007015;28;20042;-57
2023/04/27 03:29:01;;;;;;;5.78;2.35;;;26.40;99.90;;;;;;4979457;28;20073;-57
2023/04/27 03:31:26;;;;;;;5.15;3.08;;;26.40;99.90;;;;;;5005370;28;20102;-57
2023/04/27 03:33:52;;;;;;;4.80;3.05;;;26.40;99.90;;;;;;4988691;28;20030;-57
2023/04/27 03:36:18;;;;;;;4.00;2.63;;;26.40;99.90;;;;;;4992499;28;20469;-57
2023/04/27 03:38:44;;;;;;;4.53;3.03;;;26.40;99.90;;;;;;4992059;28;20109;-57
2023/04/27 03:41:10;;;;;;;3.97;2.78;;;26.40;99.90;;;;;;4992453;28;20033;-57
2023/04/27 03:43:36;;;;;;;4.00;2.92;;;26.40;99.90;;;;;;5004628;28;20112;-57
2023/04/27 03:46:02;;;;;;;4.47;2.88;;;26.40;99.90;;;;;;5005756;28;20453;-58
2023/04/27 03:48:27;;;;;;;4.40;2.67;;;26.30;99.90;;;;;;4992310;28;20101;-57
2023/04/27 03:50:53;;;;;;;3.67;2.25;;;26.40;99.90;;;;;;4992013;28;20018;-57
2023/04/27 03:53:19;;;;;;;4.25;2.92;;;26.40;99.90;;;;;;5003300;28;20026;-58
2023/04/27 03:55:45;;;;;;;3.17;2.50;;;26.30;99.90;;;;;;5011562;28;20022;-57
2023/04/27 03:58:11;;;;;;;3.90;2.60;;;26.30;99.90;;;;;;5011252;28;20510;-57
2023/04/27 04:00:37;;;;;;;4.00;2.67;;;26.30;99.90;;;;;;5012541;28;20069;-57
2023/04/27 04:03:05;;;;;;;3.58;2.70;;;26.30;99.90;;;;;;5011868;28;20076;-57
2023/04/27 04:05:31;;;;;;;;;;;26.30;99.90;;;;;;5012049;28;20030;-56
2023/04/27 04:07:57;;;;;;;3.40;2.60;;;26.30;99.90;;;;;;5011371;28;19917;-58
2023/04/27 04:10:24;;;;;;;4.00;2.33;;;26.30;99.90;;;;;;5010585;28;20356;-57
2023/04/27 04:12:50;;;;;;;3.03;2.37;;;26.30;99.90;;;;;;4991803;28;20033;-57
2023/04/27 04:15:16;;;;;;;3.92;2.20;;;26.30;99.90;;;;;;4991872;28;20536;-57
2023/04/27 04:17:42;;;;;;;3.92;2.40;;;26.20;99.90;;;;;;4991978;28;20149;-56
2023/04/27 04:20:09;;;;;;;3.30;2.30;;;26.30;99.90;;;;;;5025510;28;20026;-56
2023/04/27 04:22:36;;;;;;;4.68;2.58;;;26.30;99.90;;;;;;5011684;28;20022;-57
2023/04/27 04:25:04;;;;;;;5.57;2.67;;;26.20;99.90;;;;;;5011545;28;20121;-56
2023/04/27 04:27:33;;;;;;;5.50;2.40;;;26.20;99.90;;;;;;5009878;28;20025;-56
2023/04/27 04:29:59;;;;;;;4.30;3.08;;;26.20;99.90;;;;;;5010302;28;20041;-55
2023/04/27 04:32:30;;;;;;;8.95;2.35;;;26.20;99.90;;;;;;5010782;28;20101;-57
2023/04/27 04:34:56;;;;;;;2.58;2.00;;;26.20;99.90;;;;;;5010999;28;20025;-56
2023/04/27 04:37:22;;;;;;;4.40;2.80;;;26.20;99.90;;;;;;5011450;28;20053;-56
2023/04/27 04:39:48;;;;;;;4.85;2.70;;;26.20;99.90;;;;;;5011154;28;20014;-56
2023/04/27 04:42:14;;;;;;;5.30;2.30;;;26.20;99.90;;;;;;5010481;28;20033;-57
2023/04/27 04:44:40;;;;;;;4.82;2.72;;;26.20;99.90;;;;;;5013056;28;20080;-57
2023/04/27 04:47:08;;;;;;;5.72;2.83;;;26.20;99.90;;;;;;5015075;28;20108;-57
2023/04/27 04:49:34;;;;;;;2.95;2.05;;;26.20;99.90;;;;;;5014706;28;20472;-57
2023/04/27 04:52:00;;;;;;;4.47;2.20;;;26.20;99.90;;;;;;5015474;28;20427;-55
2023/04/27 04:54:26;;;;;;;3.17;2.13;;;26.10;99.90;;;;;;5015088;28;20014;-57
2023/04/27 04:56:52;;;;;;;8.13;2.42;;;26.10;99.90;;;;;;5015029;28;20033;-56
2023/04/27 04:59:18;;;;;;;3.70;2.10;;;26.10;99.90;;;;;;5014842;28;20048;-56
2023/04/27 05:01:43;;;;;;;4.60;1.95;;;26.10;99.90;;;;;;5011125;28;20042;-57
2023/04/27 05:04:09;;;;;;;3.63;2.20;;;26.10;99.90;;;;;;4994000;28;20050;-57
2023/04/27 05:06:35;;;;;;;6.47;1.85;;;26.10;99.90;;;;;;4994779;28;20584;-56
2023/04/27 05:09:01;;;;;;;4.93;2.67;;;26.10;99.90;;;;;;4995195;28;20022;-57
2023/04/27 05:11:27;;;;;;;4.03;2.20;;;26.10;99.90;;;;;;5005847;28;20048;-58
2023/04/27 05:13:52;;;;;;;4.38;1.92;;;26.10;99.90;;;;;;5014512;28;20123;-56
2023/04/27 05:16:18;;;;;;;5.57;2.25;;;26.10;99.90;;;;;;5010308;28;20058;-57
2023/04/27 05:18:44;;;;;;;5.40;2.35;;;26.00;99.90;;;;;;4997284;28;20030;-57
2023/04/27 05:21:19;;;;;;;5.68;2.03;;;26.10;99.90;;;;;;5002410;28;20030;-57
2023/04/27 05:23:45;;;;;;;5.93;2.25;;;26.00;99.90;;;;;;5007589;28;20496;-57
2023/04/27 05:26:15;;;;;;;4.35;1.83;;;26.00;99.90;;;;;;5014035;28;20041;-56
2023/04/27 05:28:41;;;;;;;4.78;2.67;;;26.00;99.90;;;;;;5013512;28;20018;-57
2023/04/27 05:31:06;;;;;;;6.60;3.00;;;26.00;99.90;;;;;;5013845;28;20046;-57
2023/04/27 05:33:32;;;;;;;7.28;2.67;;;26.00;99.90;;;;;;5013743;28;20026;-57
2023/04/27 05:35:58;;;;;;;8.50;3.35;;;26.00;99.90;;;;;;5013803;28;20454;-56
2023/04/27 05:38:25;;;;;;;8.23;2.70;;;26.00;99.90;;;;;;5008390;28;20483;-57
2023/04/27 05:40:55;;;;;;;7.43;2.67;;;26.00;99.90;;;;;;4998880;28;20543;-57
2023/04/27 05:43:21;;;;;;;7.03;2.95;;;26.00;99.90;;;;;;5006917;28;20030;-56
2023/04/27 05:45:47;;;;;;;4.55;2.42;;;26.00;99.90;;;;;;5009837;28;20041;-56
2023/04/27 05:48:13;;;;;;;10.27;2.60;;;26.00;99.90;;;;;;5013689;28;20030;-57
2023/04/27 05:50:39;;;;;;;5.82;2.22;;;26.00;99.90;;;;;;5013765;28;20052;-58
2023/04/27 05:53:05;;;;;;;7.97;3.10;;;25.90;99.90;;;;;;5013238;28;20025;-58
2023/04/27 05:55:31;;;;;;;8.27;3.05;;;26.00;99.90;;;;;;5013892;28;20050;-59
2023/04/27 05:57:57;;;;;;;5.35;3.53;;;26.00;99.90;;;;;;5012196;28;20018;-58
2023/04/27 06:00:23;;;;;;;3.90;3.05;;;25.90;99.90;;;;;;5013383;28;20060;-59
2023/04/27 06:02:51;;;;;;;5.53;2.78;;;25.90;99.90;;;;;;5013213;28;20145;-57
2023/04/27 06:05:17;;;;;;;4.88;2.83;;;26.00;99.90;;;;;;5013253;28;20117;-58
2023/04/27 06:07:43;;;;;;;7.43;3.17;;;25.90;99.90;;;;;;5012167;28;20026;-58
2023/04/27 06:10:10;;;;;;;5.45;3.03;;;25.90;99.90;;;;;;5013572;28;20032;-55
2023/04/27 06:12:36;;;;;;;7.10;3.65;;;25.90;99.90;;;;;;5013532;28;20083;-56
2023/04/27 06:15:07;;;;;;;8.70;3.97;;;25.90;99.90;;;;;;5013740;28;20029;-57
2023/04/27 06:17:34;;;;;;;6.32;3.70;;;25.90;99.90;;;;;;5013800;28;20036;-57
2023/04/27 06:20:00;;;;;;;8.38;3.80;;;25.90;99.90;;;;;;5010792;28;20029;-59
2023/04/27 06:22:26;;;;;;;8.45;3.85;;;25.90;99.90;;;;;;5011795;28;20038;-56
2023/04/27 06:24:51;;;;;;;7.15;3.70;;;25.90;99.90;;;;;;5013052;28;20026;-57
2023/04/27 06:27:17;;;;;;;7.90;4.53;;;25.90;99.90;;;;;;4991478;28;20492;-56
2023/04/27 06:29:43;;;;;;;10.48;4.65;;;25.90;99.90;;;;;;4978649;28;20058;-56
2023/04/27 06:32:09;;;;;;;8.85;4.80;;;25.90;99.90;;;;;;4978353;28;20114;-58
2023/04/27 06:34:34;;;;;;;7.90;4.80;;;25.90;99.90;;;;;;4978595;28;20022;-57
2023/04/27 06:37:01;;;;;;;12.52;4.88;;;25.90;99.90;;;;;;4973493;28;20110;-57
2023/04/27 06:39:26;;;;;;;7.78;4.28;;;25.90;99.90;;;;;;4973482;28;20023;-57
2023/04/27 06:41:52;;;;;;;11.82;5.32;;;25.90;99.90;;;;;;4975277;28;20035;-57
2023/04/27 06:44:18;;;;;;;11.07;4.57;;;25.90;99.90;;;;;;4983984;28;20110;-57
2023/04/27 06:46:44;;;;;;;10.93;4.70;;;25.90;99.90;;;;;;4986732;28;20053;-57
2023/04/27 06:49:09;;;;;;;10.98;4.95;;;25.90;99.90;;;;;;4976792;28;20023;-58
2023/04/27 06:51:35;;;;;;;6.45;5.05;;;25.90;99.90;;;;;;4993579;28;20026;-57
2023/04/27 06:54:02;;;;;;;7.45;4.88;;;25.90;99.90;;;;;;4977610;28;20035;-57
2023/04/27 06:56:28;;;;;;;9.15;4.93;;;25.90;99.90;;;;;;4982480;28;20041;-57
2023/04/27 06:58:54;;;;;;;12.18;5.72;;;25.90;99.90;;;;;;4980157;28;20575;-56
2023/04/27 07:01:19;;;;;;;11.23;6.57;;;25.90;99.90;;;;;;4982008;28;20047;-57
2023/04/27 07:03:45;;;;;;;10.60;6.22;;;25.90;99.90;;;;;;4980177;28;20024;-56
2023/04/27 07:06:11;;;;;;;9.20;5.90;;;25.90;99.90;;;;;;4974822;28;20341;-57
2023/04/27 07:08:37;;;;;;;10.18;6.35;;;25.90;99.90;;;;;;4991230;28;20205;-58
2023/04/27 07:11:03;;;;;;;12.50;6.03;;;25.90;99.90;;;;;;4986651;28;20037;-57
2023/04/27 07:13:29;;;;;;;12.02;5.82;;;25.90;99.90;;;;;;4978417;28;20064;-57
2023/04/27 07:15:58;;;;;;;9.73;5.40;;;25.90;99.90;;;;;;5010088;28;20022;-57
2023/04/27 07:18:26;;;;;;;8.68;6.50;;;25.90;99.90;;;;;;5011658;28;20022;-58
2023/04/27 07:20:53;;;;;;;8.23;5.78;;;25.90;99.90;;;;;;5011988;28;20050;-58
2023/04/27 07:23:19;;;;;;;11.48;7.38;;;25.90;99.90;;;;;;5001678;28;20073;-58
2023/04/27 07:25:45;;;;;;;12.55;6.50;;;25.90;99.90;;;;;;5007857;28;20042;-58
2023/04/27 07:28:11;;;;;;;11.00;6.53;;;25.90;99.90;;;;;;5012001;28;20054;-58
2023/04/27 07:30:38;;;;;;;14.60;6.90;;;25.90;99.90;;;;;;4995938;28;20026;-58
2023/04/27 07:33:04;;;;;;;15.13;6.97;;;25.90;99.90;;;;;;4992474;28;20376;-59
2023/04/27 07:35:30;;;;;;;10.80;6.75;;;25.90;99.90;;;;;;4992045;28;20083;-59
2023/04/27 07:37:56;;;;;;;15.95;7.05;;;25.90;99.90;;;;;;4991065;28;20939;-58
2023/04/27 07:40:23;;;;;;;9.77;6.30;;;25.90;99.90;;;;;;4991957;28;20026;-59
2023/04/27 07:42:49;;;;;;;10.80;6.35;;;25.90;99.90;;;;;;4999507;28;20025;-58
2023/04/27 07:45:18;;;;;;;10.57;7.35;;;25.90;99.90;;;;;;5010449;28;20038;-59
2023/04/27 07:47:45;;;;;;;11.98;6.72;;;25.90;99.90;;;;;;5005398;28;20022;-59
2023/04/27 07:50:13;;;;;;;12.32;6.85;;;26.00;99.90;;;;;;5010994;28;20030;-60
2023/04/27 07:52:39;;;;;;;16.08;8.13;;;26.00;99.90;;;;;;5011638;28;20038;-58
2023/04/27 07:55:05;;;;;;;12.90;7.07;;;26.00;99.90;;;;;;5011290;28;20030;-58
2023/04/27 07:57:31;;;;;;;8.98;6.50;;;26.00;99.90;;;;;;5000937;28;20029;-58
2023/04/27 07:59:57;;;;;;;9.98;6.93;;;26.00;99.90;;;;;;5009133;28;20038;-58
2023/04/27 08:02:23;;;;;;;11.85;6.60;;;26.00;99.90;;;;;;5010238;28;20030;-57
2023/04/27 08:04:49;;;;;;;13.95;6.60;;;26.00;99.90;;;;;;5011322;28;20109;-57
2023/04/27 08:07:15;;;;;;;11.18;6.50;;;26.00;99.90;;;;;;5011597;28;20038;-58
2023/04/27 08:09:41;;;;;;;9.10;6.47;;;26.00;99.90;;;;;;5011570;28;20126;-57
2023/04/27 08:12:07;;;;;;;10.98;6.25;;;26.00;99.90;;;;;;5011717;28;20272;-58
2023/04/27 08:14:34;;;;;;;11.05;5.53;;;26.00;99.90;;;;;;4996388;28;20018;-58
2023/04/27 08:17:00;;;;;;;11.30;6.57;;;26.00;99.90;;;;;;4991795;28;20464;-58
2023/04/27 08:19:26;;;;;;;9.57;6.00;;;26.00;99.90;;;;;;5006617;28;20030;-58
2023/04/27 08:21:52;;;;;;;9.57;5.82;;;26.00;99.90;;;;;;5015296;28;20029;-58
2023/04/27 08:24:19;;;;;;;8.93;5.88;;;26.10;99.90;;;;;;5003128;28;20031;-58
2023/04/27 08:26:45;;;;;;;11.52;5.50;;;26.10;99.90;;;;;;4995449;28;20570;-57
2023/04/27 08:29:11;;;;;;;12.38;6.25;;;26.10;99.90;;;;;;4995566;28;20034;-58
2023/04/27 08:31:37;;;;;;;10.68;5.38;;;26.00;99.90;;;;;;5012579;28;20022;-59
2023/04/27 08:34:02;;;;;;;13.77;6.40;;;26.10;99.90;;;;;;5015134;28;20097;-59
2023/04/27 08:36:29;;;;;;;8.18;5.53;;;26.10;99.90;;;;;;5003718;28;20034;-59
2023/04/27 08:38:55;;;;;;;11.37;5.90;;;26.10;99.90;;;;;;4997688;28;20500;-59
2023/04/27 08:41:22;;;;;;;15.45;5.90;;;26.10;99.90;;;;;;5013652;28;20104;-58
2023/04/27 08:43:52;;;;;;;9.93;5.72;;;26.10;99.90;;;;;;5014958;28;20502;-58
2023/04/27 08:46:22;;;;;;;9.25;5.07;;;26.10;99.90;;;;;;5011173;28;20088;-59
2023/04/27 08:48:52;;;;;;;9.52;5.75;;;26.10;99.90;;;;;;4991463;28;20027;-58
2023/04/27 08:51:19;;;;;;;11.07;6.50;;;26.20;99.90;;;;;;4975647;28;20042;-59
2023/04/27 08:53:50;;;;;;;11.90;6.07;;;26.20;99.90;;;;;;4981500;28;20031;-58
2023/04/27 08:56:17;;;;;;;13.82;5.70;;;26.20;99.90;;;;;;4975669;28;20122;-61
2023/04/27 08:58:43;;;;;;;9.63;5.43;;;26.20;99.90;;;;;;4981006;28;20022;-57
2023/04/27 09:01:09;;;;;;;17.17;6.20;;;26.20;99.90;;;;;;4981605;28;20062;-57
2023/04/27 09:03:36;;;;;;;7.53;4.93;;;26.20;99.90;;;;;;4977950;28;20037;-58
2023/04/27 09:06:03;;;;;;;11.82;5.25;;;26.20;99.90;;;;;;4981790;28;20122;-57
2023/04/27 09:08:46;;;;;;;7.65;5.57;;;26.20;99.90;;;;;;4978788;28;20038;-57
2023/04/27 09:11:14;;;;;;;9.68;4.50;;;26.20;99.90;;;;;;4978642;28;20380;-57
2023/04/27 09:13:43;;;;;;;9.85;5.32;;;26.20;99.90;;;;;;4977082;28;20030;-58
2023/04/27 09:16:12;;;;;;;7.43;4.85;;;26.20;99.90;;;;;;4987072;28;20097;-58
2023/04/27 09:18:42;;;;;;;7.95;4.97;;;26.20;99.90;;;;;;4980571;28;20049;-57
2023/04/27 09:21:08;;;;;;;8.73;5.82;;;26.20;99.90;;;;;;4975997;28;20050;-57
2023/04/27 09:23:36;;;;;;;8.63;4.85;;;26.30;99.90;;;;;;4977288;28;20031;-57
2023/04/27 09:26:07;;;;;;;7.97;4.85;;;26.30;99.90;;;;;;4976776;28;20042;-57
2023/04/27 09:28:34;;;;;;;7.05;5.20;;;26.30;99.90;;;;;;4986507;28;20027;-57
2023/04/27 09:31:04;;;;;;;7.93;5.10;;;26.30;99.90;;;;;;4975313;28;20041;-57
2023/04/27 09:33:34;;;;;;;6.82;4.63;;;26.30;99.90;;;;;;4979392;28;20061;-58
2023/04/27 09:36:02;;;;;;;6.75;4.80;;;26.30;99.90;;;;;;4975361;28;20026;-57
2023/04/27 09:38:30;;;;;;;9.70;4.90;;;26.30;99.90;;;;;;4986873;28;20480;-58
2023/04/27 09:40:56;;;;;;;8.90;5.20;;;26.30;99.90;;;;;;4977455;28;20039;-57
2023/04/27 09:43:23;;;;;;;5.55;4.47;;;26.30;99.90;;;;;;4984130;28;20029;-58
2023/04/27 09:45:50;;;;;;;9.05;4.22;;;26.30;99.90;;;;;;4978619;28;20065;-58
2023/04/27 09:48:17;;;;;;;7.07;4.82;;;26.30;99.90;;;;;;4985567;28;20081;-58
2023/04/27 09:50:45;;;;;;;6.75;4.97;;;26.30;99.90;;;;;;4983420;28;20026;-58
2023/04/27 09:53:14;;;;;;;7.55;5.57;;;26.40;99.90;;;;;;4978825;28;20117;-58
2023/04/27 09:55:58;;;;;;;7.13;4.43;;;26.40;99.90;;;;;;4980075;28;20035;-58
2023/04/27 09:58:43;;;;;;;8.23;4.30;;;26.40;99.90;;;;;;4983321;28;20031;-59
2023/04/27 10:01:17;;;;;;;6.18;4.53;;;26.40;99.90;;;;;;4976861;28;20050;-58
2023/04/27 10:04:17;;;;;;;9.43;4.57;;;26.40;99.90;;;;;;4977264;28;20037;-58
2023/04/27 10:07:06;;;;;;;7.38;4.35;;;26.40;99.90;;;;;;4984221;28;20039;-58
2023/04/27 10:09:43;;;;;;;6.35;4.32;;;26.40;99.90;;;;;;4976917;28;20042;-57
2023/04/27 10:12:35;;;;;;;6.00;4.20;;;26.40;99.90;;;;;;4974010;28;20034;-57
2023/04/27 10:15:15;;;;;;;5.80;4.38;;;26.40;99.90;;;;;;4986861;28;20043;-58
2023/04/27 10:17:49;;;;;;;6.47;4.07;;;26.40;99.90;;;;;;4979215;28;20061;-57
2023/04/27 10:20:16;;;;;;;4.82;3.90;;;26.40;99.90;;;;;;4985744;28;20034;-57
2023/04/27 10:22:51;;;;;;;6.57;4.28;;;26.40;99.90;;;;;;4976195;28;20110;-58
2023/04/27 10:25:22;;;;;;;9.20;4.82;;;26.50;99.90;;;;;;4984785;28;20042;-58
2023/04/27 10:27:54;;;;;;;5.90;4.13;;;26.50;99.90;;;;;;4986133;28;20026;-59
2023/04/27 10:30:21;;;;;;;8.68;4.07;;;26.50;99.90;;;;;;4985985;28;20041;-58
2023/04/27 10:32:51;;;;;;;;;;;26.50;99.90;;;;;;4978986;28;20019;-60
2023/04/27 10:35:17;;;;;;;8.73;5.00;;;26.50;99.90;;;;;;4982658;28;19959;-58
2023/04/27 10:37:43;;;;;;;8.13;5.60;;;26.60;99.90;;;;;;4980533;28;21207;-58
2023/04/27 10:40:14;;;;;;;10.85;6.20;;;26.60;99.90;;;;;;4979913;28;20397;-58
2023/04/27 10:42:40;;;;;;;8.27;5.10;;;26.60;99.90;;;;;;4977992;28;20023;-59
2023/04/27 10:45:07;;;;;;;6.88;5.15;;;26.60;99.90;;;;;;4978705;28;20356;-58
2023/04/27 10:47:41;;;;;;;9.27;6.07;;;26.60;99.90;;;;;;4976217;28;20039;-59
2023/04/27 10:50:10;;;;;;;6.65;5.35;;;26.60;99.90;;;;;;4978571;28;20256;-58
2023/04/27 10:52:42;;;;;;;8.10;5.45;;;26.60;99.90;;;;;;4979368;28;20045;-58
2023/04/27 10:55:19;;;;;;;8.98;5.50;;;26.70;99.90;;;;;;4984544;28;20078;-59
2023/04/27 10:57:50;;;;;;;8.43;5.50;;;26.60;99.90;;;;;;4980469;28;20014;-59
2023/04/27 11:00:27;;;;;;;8.20;6.20;;;26.60;99.90;;;;;;4975641;28;20058;-58
2023/04/27 11:02:55;;;;;;;8.52;5.95;;;26.70;99.90;;;;;;4974662;28;20477;-58
2023/04/27 11:05:24;;;;;;;6.88;4.75;;;26.70;99.90;;;;;;4976514;28;20050;-58
2023/04/27 11:07:51;;;;;;;8.13;3.65;;;26.70;99.90;;;;;;4982813;28;20018;-59
2023/04/27 11:10:18;;;;;;;6.80;2.85;;;26.70;99.90;;;;;;4980684;28;20056;-58
2023/04/27 11:12:44;;;;;;;7.18;3.42;;;26.60;99.90;;;;;;4978037;28;20078;-58
2023/04/27 11:15:11;;;;;;;8.55;3.92;;;26.50;99.90;;;;;;4974203;28;20440;-58
2023/04/27 11:17:37;;;;;;;6.55;3.80;;;26.40;99.90;;;;;;4978298;28;20058;-58
2023/04/27 11:20:06;;;;;;;7.80;3.95;;;26.30;99.90;;;;;;4979940;28;20023;-58
2023/04/27 11:22:32;;;;;;;11.27;4.47;;;26.30;99.90;;;;;;4980674;28;20023;-58
2023/04/27 11:24:57;;;;;;;10.57;3.80;;;26.20;99.90;;;;;;4979781;28;20536;-57
2023/04/27 11:27:35;;;;;;;7.15;3.55;;;26.20;99.90;;;;;;4980884;28;20065;-56
2023/04/27 11:30:01;;;;;;;6.65;3.90;;;26.10;99.90;;;;;;4975283;28;20031;-57
2023/04/27 11:32:27;;;;;;;6.43;3.60;;;26.10;99.90;;;;;;4977503;28;20561;-56
2023/04/27 11:34:53;;;;;;;10.20;3.70;;;26.00;99.90;;;;;;4976764;28;20037;-58
2023/04/27 11:37:26;;;;;;;6.28;3.80;;;26.00;99.90;;;;;;4978340;28;20547;-58
2023/04/27 11:39:56;;;;;;;9.52;3.67;;;25.90;99.90;;;;;;4977398;28;20049;-57
2023/04/27 11:42:27;;;;;;;7.97;3.75;;;25.90;99.90;;;;;;4977917;28;20130;-57
2023/04/27 11:44:57;;;;;;;10.85;3.80;;;25.90;99.90;;;;;;4973015;28;20684;-58
2023/04/27 11:47:26;;;;;;;9.10;3.95;;;25.90;99.90;;;;;;4979687;28;20037;-57
2023/04/27 11:49:55;;;;;;;10.98;4.05;;;25.90;99.90;;;;;;4980920;28;20054;-57
2023/04/27 11:52:31;;;;;;;9.73;4.03;;;25.90;99.90;;;;;;4983571;28;20056;-57
2023/04/27 11:54:59;;;;;;;7.47;3.37;;;25.80;99.90;;;;;;4974650;28;20041;-57
2023/04/27 11:57:29;;;;;;;10.73;3.50;;;25.80;99.90;;;;;;4982455;28;20058;-58
2023/04/27 11:59:58;;;;;;;6.75;3.53;;;25.80;99.90;;;;;;4977635;28;20057;-58
2023/04/27 12:02:25;;;;;;;9.68;4.72;;;25.90;99.90;;;;;;4983291;28;20481;-59
2023/04/27 12:04:52;;;;;;;10.25;3.70;;;25.90;99.90;;;;;;4998678;28;20121;-57
2023/04/27 12:07:18;;;;;;;6.63;3.55;;;25.90;99.90;;;;;;4973509;28;20042;-58
2023/04/27 12:09:44;;;;;;;7.97;3.37;;;26.00;99.90;;;;;;4978739;28;20034;-57
2023/04/27 12:12:17;;;;;;;11.10;5.18;;;26.00;99.90;;;;;;4976887;28;20018;-63
2023/04/27 12:14:43;;;;;;;10.80;4.65;;;26.00;99.90;;;;;;4981827;28;20077;-64
2023/04/27 12:17:09;;;;;;;15.07;4.93;;;26.10;99.90;;;;;;4979159;28;20054;-57
2023/04/27 12:19:36;;;;;;;10.15;4.70;;;26.10;99.90;;;;;;4974827;28;20307;-57
2023/04/27 12:22:02;;;;;;;13.93;4.30;;;26.10;99.90;;;;;;4973613;28;20019;-57
2023/04/27 12:24:28;;;;;;;9.65;4.47;;;26.10;99.90;;;;;;4979943;28;20038;-57
2023/04/27 12:26:53;;;;;;;12.13;4.50;;;26.20;99.90;;;;;;4974408;28;20424;-57
2023/04/27 12:29:20;;;;;;;8.43;4.50;;;26.20;99.90;;;;;;4979967;28;20053;-56
2023/04/27 12:31:46;;;;;;;9.32;4.78;;;26.20;99.90;;;;;;4974210;28;20015;-56
2023/04/27 12:34:12;;;;;;;10.27;5.05;;;26.30;99.90;;;;;;4975174;28;20403;-56
2023/04/27 12:36:37;;;;;;;9.80;4.90;;;26.30;99.90;;;;;;4971748;28;20058;-56
2023/04/27 12:39:15;;;;;;;10.98;5.82;;;26.30;99.90;;;;;;4976121;28;20596;-56
2023/04/27 12:41:43;;;;;;;14.88;6.95;;;26.30;99.90;;;;;;4977513;28;20031;-56
2023/04/27 12:44:09;;;;;;;8.63;6.20;;;26.40;99.90;;;;;;4980432;28;20396;-56
2023/04/27 12:46:34;;;;;;;12.48;7.80;;;26.40;99.90;;;;;;4977971;28;20027;-57